Tukertown, Arkansas
Current Conditions -  °F | °C
As of 9:53 AM on Sunday 25 Jan 2015 (Local Time) from KHKA Reporting Station
Light Rain Light Rain  
Wind Chill: 37°   Ceiling: 6000
Heat Index: 44°   Visibility: 10mi
Dew Point: 39°   Wind: 16mph
Humidity: 82%   Direction: 220°SW
Pressure: 29.7"   Gusts: NA
Location:  35.809°N, 89.9565°W
Report Text: KHKA 251553Z AUTO 22014KT 10SM -RA OVC060 07/04 A2970 RMK AO2 RAB27 SLP060 P0000 T00670039
Loading
Personal Weather Stations






























Interactive Weather Map New forecast layout! Learn more

10-Day Weather Forecast

Advertisements
Track Severe Weather on mobile